< < Back
Terminal Aerodrome Forecast


Current Version              Previous Versions:   1  2  3  4  5  6  7  8  9  

Terminal Aerodrome Forecast

821
FTUS42 KFFC 260524
TAFMCN
TAF
KMCN 260524Z 2606/2706 31005KT 6SM -RA BR SCT025 OVC050
     FM260800 31005KT 6SM -RA BR SCT010 OVC025
     FM261400 29008KT P6SM SCT025 BKN050
     FM261600 28008KT P6SM SCT050
     FM262200 24005KT P6SM SCT250=



Latest METAR

158
SAUS80 KWBC 251100 RRK
MTRMCN
METAR KMCN 261053Z AUTO 28003KT 10SM OVC065 08/08 A3003 RMK AO2 RAE22
SLP166 P0001 T00780078 TSNO $


USA.gov is the U.S. government's official web portal to all federal, state and local government web resources and services.